Terminal Aerodrome Forecast
Issued by NWS

Current Version | Previous Version | Graphics & Text | Print | Product List | Glossary On
Versions: 1 2 3 4 5 6 7 8 9 10 11 12 13 14 15 16 17 18 19 20
000
FTUS41 KPBZ 141122
TAFHLG
TAF
KHLG 141122Z 1412/1512 06003KT P6SM OVC050
      TEMPO 1412/1414 -FZRAPL
     FM141700 VRB03KT 3SM -RAPL OVC015
     FM141900 33003KT 2SM -RAPL OVC008
     FM142200 30005KT 5SM BR OVC010
     FM150100 30005KT P6SM OVC020
     FM150500 31005KT P6SM BKN040=

USA.gov is the U.S. government's official web portal to all federal, state and local government web resources and services.